createdAt,value
2022-09-12T00:01:33.603Z,5.10
2022-09-12T00:04:02.588Z,4.70
2022-09-12T00:06:34.281Z,5.20
2022-09-12T00:09:08.951Z,5.50
2022-09-12T00:11:43.982Z,5.50
2022-09-12T00:14:16.438Z,4.90
2022-09-12T00:16:47.571Z,4.70
2022-09-12T00:19:16.452Z,4.90
2022-09-12T00:24:14.208Z,5.20
2022-09-12T00:26:43.210Z,4.20
2022-09-12T00:29:21.740Z,4.70
2022-09-12T00:31:49.945Z,5.00
2022-09-12T00:34:18.155Z,5.20
2022-09-12T00:36:45.718Z,4.30
2022-09-12T00:39:16.944Z,4.50
2022-09-12T00:41:47.322Z,4.60
2022-09-12T00:44:16.934Z,4.90
2022-09-12T00:46:56.168Z,4.40
2022-09-12T00:49:41.944Z,4.70
2022-09-12T00:52:26.518Z,3.70
2022-09-12T00:55:13.179Z,3.90
2022-09-12T00:57:50.131Z,4.00
2022-09-12T01:00:23.521Z,4.40
2022-09-12T01:03:21.343Z,4.10
2022-09-12T01:06:09.969Z,4.30
2022-09-12T01:08:40.827Z,4.30
2022-09-12T01:11:13.730Z,4.30
2022-09-12T01:13:44.054Z,3.90
2022-09-12T01:16:13.542Z,3.60
2022-09-12T01:19:12.693Z,4.50
2022-09-12T01:22:04.928Z,3.80
2022-09-12T01:25:02.275Z,4.10
2022-09-12T01:28:06.302Z,4.30
2022-09-12T01:31:24.652Z,4.10
2022-09-12T01:34:28.379Z,4.00
2022-09-12T01:37:25.921Z,3.80
2022-09-12T01:40:23.796Z,3.60
2022-09-12T01:43:18.430Z,3.50
2022-09-12T01:46:07.851Z,4.00
2022-09-12T01:48:41.087Z,4.00
2022-09-12T01:51:35.597Z,3.90
2022-09-12T01:54:38.408Z,3.80
2022-09-12T01:57:19.153Z,3.70
2022-09-12T01:59:54.719Z,4.20
2022-09-12T02:02:36.394Z,3.30
2022-09-12T02:05:20.403Z,3.70
2022-09-12T02:07:56.868Z,3.70
2022-09-12T02:10:32.557Z,3.50
2022-09-12T02:13:19.747Z,3.50
2022-09-12T02:15:58.542Z,3.30
2022-09-12T02:20:59.880Z,4.00
2022-09-12T02:23:35.147Z,3.70
2022-09-12T02:26:28.906Z,4.00
2022-09-12T02:29:00.103Z,3.20
2022-09-12T02:31:47.289Z,4.30
2022-09-12T02:34:25.392Z,4.20
2022-09-12T02:37:38.453Z,3.70
2022-09-12T02:40:09.953Z,3.80
2022-09-12T02:42:42.274Z,3.60
2022-09-12T02:45:12.011Z,3.90
2022-09-12T02:48:17.759Z,4.10
2022-09-12T02:50:47.398Z,3.90
2022-09-12T02:53:15.035Z,3.90
2022-09-12T02:55:44.330Z,3.70
2022-09-12T02:58:19.010Z,3.80
2022-09-12T03:00:59.699Z,3.60
2022-09-12T03:03:50.003Z,3.80
2022-09-12T03:06:28.685Z,3.90
2022-09-12T03:09:25.927Z,4.00
2022-09-12T03:12:08.488Z,3.90
2022-09-12T03:14:47.434Z,3.50
2022-09-12T03:17:41.648Z,4.00
2022-09-12T03:20:21.035Z,3.90
2022-09-12T03:22:56.031Z,4.50
2022-09-12T03:25:32.413Z,3.60
2022-09-12T03:28:07.751Z,3.90
2022-09-12T03:30:41.537Z,4.10
2022-09-12T03:33:16.601Z,4.30
2022-09-12T03:35:44.930Z,4.70
2022-09-12T03:38:12.350Z,4.00
2022-09-12T03:40:39.787Z,3.60
2022-09-12T03:43:09.940Z,4.40
2022-09-12T03:45:37.784Z,3.70
2022-09-12T03:48:06.956Z,4.10
2022-09-12T03:50:35.550Z,4.00
2022-09-12T03:53:04.009Z,4.80
2022-09-12T03:55:30.930Z,4.20
2022-09-12T03:58:01.091Z,4.00
2022-09-12T04:00:28.421Z,4.10
2022-09-12T04:02:58.316Z,4.10
2022-09-12T04:05:26.031Z,4.60
2022-09-12T04:07:53.715Z,4.20
2022-09-12T04:10:20.969Z,4.20
2022-09-12T04:12:49.968Z,4.60
2022-09-12T04:15:19.341Z,4.60
2022-09-12T04:17:46.859Z,4.40
2022-09-12T04:20:15.161Z,4.20
2022-09-12T04:22:44.293Z,4.30
2022-09-12T04:25:13.292Z,4.50
2022-09-12T04:27:43.515Z,4.70
2022-09-12T04:30:12.610Z,4.60
2022-09-12T04:32:40.965Z,4.60
2022-09-12T04:35:07.865Z,4.50
2022-09-12T04:37:36.491Z,4.10
2022-09-12T04:40:03.742Z,4.10
2022-09-12T04:42:32.726Z,4.50
2022-09-12T04:45:00.765Z,4.40
2022-09-12T04:47:28.939Z,4.60
2022-09-12T04:49:59.572Z,4.40
2022-09-12T04:52:27.433Z,4.50
2022-09-12T04:54:55.709Z,4.10
2022-09-12T04:57:24.450Z,4.50
2022-09-12T04:59:51.375Z,4.10
2022-09-12T05:02:18.020Z,4.40
2022-09-12T05:04:46.455Z,4.40
2022-09-12T05:07:16.650Z,4.50
2022-09-12T05:09:43.520Z,4.60
2022-09-12T05:12:12.946Z,4.50
2022-09-12T05:14:41.361Z,4.30
2022-09-12T05:17:08.940Z,4.80
2022-09-12T05:19:36.505Z,4.70
2022-09-12T05:22:04.466Z,4.60
2022-09-12T05:24:32.095Z,4.10
2022-09-12T05:27:00.224Z,4.00
2022-09-12T05:29:29.295Z,4.20
2022-09-12T05:31:59.138Z,3.80
2022-09-12T05:36:53.940Z,4.60
2022-09-12T05:39:22.416Z,4.30
2022-09-12T05:41:50.368Z,4.60
2022-09-12T05:44:17.678Z,4.20
2022-09-12T05:46:50.232Z,4.10
2022-09-12T05:49:18.714Z,3.90
2022-09-12T05:51:46.714Z,4.70
2022-09-12T05:54:18.122Z,4.50
2022-09-12T05:56:45.180Z,4.40
2022-09-12T05:59:19.354Z,4.00
2022-09-12T06:01:47.219Z,4.20
2022-09-12T06:04:15.873Z,4.00
2022-09-12T06:06:47.095Z,4.30
2022-09-12T06:09:16.521Z,4.30
2022-09-12T06:11:44.965Z,4.00
2022-09-12T06:14:14.589Z,3.80
2022-09-12T06:16:41.553Z,3.50
2022-09-12T06:19:20.206Z,3.80
2022-09-12T06:24:17.399Z,4.00
2022-09-12T06:26:44.958Z,3.80
2022-09-12T06:29:12.620Z,3.50
2022-09-12T06:31:41.050Z,3.50
2022-09-12T06:34:10.820Z,3.20
2022-09-12T06:36:45.277Z,3.80
2022-09-12T06:39:22.942Z,3.30
2022-09-12T06:41:51.387Z,3.60
2022-09-12T06:44:23.337Z,3.30
2022-09-12T06:46:50.059Z,3.20
2022-09-12T06:49:19.549Z,3.20
2022-09-12T06:51:52.744Z,3.20
2022-09-12T06:54:21.770Z,3.10
2022-09-12T06:56:49.907Z,2.80
2022-09-12T06:59:16.587Z,2.60
2022-09-12T07:01:44.216Z,3.10
2022-09-12T07:04:11.096Z,2.50
2022-09-12T07:06:40.028Z,2.80
2022-09-12T07:11:37.403Z,2.80
2022-09-12T07:14:12.707Z,2.70
2022-09-12T07:16:39.766Z,2.50
2022-09-12T07:19:07.481Z,2.40
2022-09-12T07:21:39.105Z,2.60
2022-09-12T07:24:08.185Z,2.60
2022-09-12T07:29:32.207Z,2.10
2022-09-12T07:31:50.018Z,2.00
2022-09-12T07:34:17.313Z,2.00
2022-09-12T07:36:44.627Z,2.10
2022-09-12T07:39:12.976Z,2.00
2022-09-12T07:41:39.463Z,1.90
2022-09-12T07:44:07.571Z,2.50
2022-09-12T07:46:35.048Z,2.20
2022-09-12T07:49:02.966Z,2.50
2022-09-12T07:51:31.183Z,2.10
2022-09-12T07:53:58.584Z,2.10
2022-09-12T07:56:30.235Z,2.00
2022-09-12T07:58:58.875Z,2.30
2022-09-12T08:01:26.294Z,2.10
2022-09-12T08:03:56.339Z,2.30
2022-09-12T08:06:24.573Z,2.30
2022-09-12T08:08:54.227Z,2.10
2022-09-12T08:11:23.752Z,2.30
2022-09-12T08:13:55.402Z,1.90
2022-09-12T08:16:27.789Z,2.20
2022-09-12T08:18:55.242Z,1.80
2022-09-12T08:21:27.048Z,2.10
2022-09-12T08:23:56.588Z,2.20
2022-09-12T08:26:24.157Z,2.30
2022-09-12T08:28:52.681Z,2.50
2022-09-12T08:31:21.048Z,2.40
2022-09-12T08:33:48.450Z,2.70
2022-09-12T08:36:22.292Z,2.30
2022-09-12T08:38:59.084Z,2.30
2022-09-12T08:41:40.972Z,2.10
2022-09-12T08:44:26.282Z,2.40
2022-09-12T08:47:15.464Z,2.20
2022-09-12T08:49:52.470Z,2.20
2022-09-12T08:52:23.472Z,2.30
2022-09-12T08:54:50.109Z,2.10
2022-09-12T08:57:19.653Z,2.40
2022-09-12T08:59:47.828Z,2.20
2022-09-12T09:03:02.516Z,2.20
2022-09-12T09:05:47.081Z,2.70
2022-09-12T09:08:37.601Z,2.30
2022-09-12T09:11:07.117Z,2.60
2022-09-12T09:14:18.741Z,2.60
2022-09-12T09:16:50.036Z,2.90
2022-09-12T09:19:24.897Z,2.60
2022-09-12T09:22:02.827Z,2.50
2022-09-12T09:24:52.864Z,2.70
2022-09-12T09:27:39.751Z,2.70
2022-09-12T09:30:19.583Z,3.00
2022-09-12T09:32:53.041Z,2.70
2022-09-12T09:35:22.506Z,2.60
2022-09-12T09:38:05.557Z,2.70
2022-09-12T09:40:50.817Z,2.40
2022-09-12T09:43:23.949Z,2.60
2022-09-12T09:45:52.477Z,2.40
2022-09-12T09:48:27.417Z,2.60
2022-09-12T09:50:56.809Z,2.20
2022-09-12T09:53:45.868Z,2.30
2022-09-12T09:56:30.000Z,2.10
2022-09-12T09:58:57.747Z,2.30
2022-09-12T10:01:27.299Z,2.20
2022-09-12T10:03:55.717Z,2.70
2022-09-12T10:06:31.216Z,2.90
2022-09-12T10:09:16.958Z,2.30
2022-09-12T10:11:46.065Z,2.30
2022-09-12T10:14:37.156Z,2.20
2022-09-12T10:17:24.451Z,1.90
2022-09-12T10:20:04.841Z,2.20
2022-09-12T10:22:46.837Z,2.00
2022-09-12T10:25:17.657Z,3.10
2022-09-12T10:27:44.286Z,2.40
2022-09-12T10:30:14.031Z,2.10
2022-09-12T10:32:43.508Z,2.30
2022-09-12T10:35:21.218Z,2.00
2022-09-12T10:37:57.843Z,1.80
2022-09-12T10:40:27.913Z,2.00
2022-09-12T10:42:59.541Z,1.80
2022-09-12T10:45:32.050Z,2.10
2022-09-12T10:48:05.459Z,2.20
2022-09-12T10:50:41.288Z,2.40
2022-09-12T10:53:18.290Z,2.60
2022-09-12T10:56:12.123Z,5.00
2022-09-12T10:58:59.259Z,2.20
2022-09-12T11:01:31.703Z,2.00
2022-09-12T11:04:16.264Z,1.80
2022-09-12T11:06:51.535Z,2.00
2022-09-12T11:09:43.060Z,1.50
2022-09-12T11:12:25.195Z,2.00
2022-09-12T11:15:02.134Z,1.80
2022-09-12T11:17:49.648Z,2.00
2022-09-12T11:20:25.964Z,2.50
2022-09-12T11:23:11.446Z,2.10
2022-09-12T11:26:03.893Z,1.90
2022-09-12T11:28:36.988Z,2.10
2022-09-12T11:31:48.867Z,2.00
2022-09-12T11:34:45.118Z,1.80
2022-09-12T11:37:23.434Z,1.90
2022-09-12T11:39:55.412Z,2.30
2022-09-12T11:42:30.022Z,2.50
2022-09-12T11:45:13.193Z,3.60
2022-09-12T11:47:41.043Z,2.80
2022-09-12T11:50:22.769Z,2.00
2022-09-12T11:52:51.005Z,2.00
2022-09-12T11:55:22.933Z,2.30
2022-09-12T11:58:03.117Z,2.80
2022-09-12T12:00:58.553Z,2.40
2022-09-12T12:03:36.624Z,2.30
2022-09-12T12:06:20.824Z,2.60
2022-09-12T12:08:49.967Z,1.80
2022-09-12T12:11:32.245Z,2.20
2022-09-12T12:14:07.491Z,1.90
2022-09-12T12:16:38.105Z,2.10
2022-09-12T12:19:31.788Z,2.00
2022-09-12T12:22:06.514Z,2.40
2022-09-12T12:24:37.075Z,2.40
2022-09-12T12:27:21.906Z,3.00
2022-09-12T12:29:48.879Z,2.10
2022-09-12T12:32:16.207Z,2.20
2022-09-12T12:34:45.041Z,2.10
2022-09-12T12:37:27.463Z,1.80
2022-09-12T12:40:22.765Z,1.80
2022-09-12T12:42:50.009Z,1.80
2022-09-12T12:45:19.330Z,1.70
2022-09-12T12:47:49.659Z,3.30
2022-09-12T12:50:15.902Z,2.30
2022-09-12T12:52:45.095Z,1.80
2022-09-12T12:55:25.800Z,1.80
2022-09-12T12:57:55.351Z,1.60
2022-09-12T13:00:31.686Z,1.60
2022-09-12T13:03:09.133Z,1.60
2022-09-12T13:05:47.208Z,1.60
2022-09-12T13:08:16.340Z,1.90
2022-09-12T13:11:15.041Z,1.60
2022-09-12T13:13:53.030Z,1.60
2022-09-12T13:16:55.289Z,1.60
2022-09-12T13:19:28.589Z,1.80
2022-09-12T13:22:07.044Z,1.70
2022-09-12T13:24:43.162Z,1.90
2022-09-12T13:27:24.781Z,1.60
2022-09-12T13:30:08.822Z,1.90
2022-09-12T13:32:35.444Z,1.80
2022-09-12T13:35:22.272Z,1.70
2022-09-12T13:38:02.546Z,1.60
2022-09-12T13:41:01.090Z,1.70
2022-09-12T13:43:43.868Z,1.80
2022-09-12T13:46:15.970Z,1.70
2022-09-12T13:48:43.608Z,1.90
2022-09-12T13:51:24.489Z,1.80
2022-09-12T13:53:55.538Z,2.00
2022-09-12T13:56:22.979Z,1.80
2022-09-12T13:58:57.628Z,1.70
2022-09-12T14:01:37.127Z,1.70
2022-09-12T14:04:32.190Z,1.70
2022-09-12T14:07:01.681Z,1.70
2022-09-12T14:09:32.173Z,1.80
2022-09-12T14:12:00.386Z,1.70
2022-09-12T14:14:35.962Z,1.40
2022-09-12T14:17:32.161Z,2.20
2022-09-12T14:20:11.112Z,1.80
2022-09-12T14:22:38.287Z,1.50
2022-09-12T14:25:09.580Z,1.70
2022-09-12T14:27:46.733Z,1.60
2022-09-12T14:30:32.195Z,1.50
2022-09-12T14:33:10.779Z,1.40
2022-09-12T14:38:23.212Z,1.70
2022-09-12T14:41:05.581Z,1.60
2022-09-12T14:43:38.372Z,1.70
2022-09-12T14:46:19.242Z,1.60
2022-09-12T14:48:50.667Z,1.90
2022-09-12T14:51:30.438Z,1.50
2022-09-12T14:53:58.845Z,1.60
2022-09-12T14:56:54.679Z,1.90
2022-09-12T14:59:36.047Z,1.80
2022-09-12T15:02:22.545Z,1.70
2022-09-12T15:04:54.640Z,1.60
2022-09-12T15:07:24.655Z,1.50
2022-09-12T15:09:51.699Z,1.70
2022-09-12T15:12:18.442Z,1.70
2022-09-12T15:14:44.973Z,2.00
2022-09-12T15:17:11.251Z,1.60
2022-09-12T15:19:37.852Z,1.70
2022-09-12T15:22:04.629Z,2.00
2022-09-12T15:24:31.127Z,1.80
2022-09-12T15:26:58.028Z,2.10
2022-09-12T15:29:24.391Z,2.20
2022-09-12T15:31:51.434Z,2.20
2022-09-12T15:34:19.042Z,1.80
2022-09-12T15:36:45.389Z,1.80
2022-09-12T15:39:11.821Z,2.00
2022-09-12T15:41:39.335Z,1.80
2022-09-12T15:44:10.442Z,2.20
2022-09-12T15:46:37.596Z,2.00
2022-09-12T15:49:04.386Z,2.00
2022-09-12T15:51:31.261Z,2.10
2022-09-12T15:53:57.666Z,1.90
2022-09-12T15:56:24.312Z,2.00
2022-09-12T15:58:58.687Z,2.30
2022-09-12T16:01:27.420Z,2.50
2022-09-12T16:03:54.090Z,2.20
2022-09-12T16:06:21.561Z,2.20
2022-09-12T16:08:48.477Z,2.30
2022-09-12T16:11:27.208Z,2.40
2022-09-12T16:13:56.520Z,2.30
2022-09-12T16:18:50.115Z,2.10
2022-09-12T16:21:17.161Z,2.30
2022-09-12T16:23:44.579Z,2.00
2022-09-12T16:26:11.018Z,2.00
2022-09-12T16:28:38.833Z,1.90
2022-09-12T16:31:07.249Z,2.30
2022-09-12T16:33:34.179Z,2.50
2022-09-12T16:36:06.834Z,2.30
2022-09-12T16:38:35.600Z,2.00
2022-09-12T16:41:04.969Z,2.20
2022-09-12T16:43:34.785Z,2.10
2022-09-12T16:46:02.761Z,2.50
2022-09-12T16:48:29.699Z,2.10
2022-09-12T16:51:03.368Z,2.20
2022-09-12T16:53:34.637Z,1.90
2022-09-12T16:56:01.670Z,2.10
2022-09-12T16:58:32.216Z,2.10
2022-09-12T17:01:04.668Z,2.20
2022-09-12T17:03:31.441Z,2.50
2022-09-12T17:06:15.901Z,2.60
2022-09-12T17:08:45.015Z,2.90
2022-09-12T17:11:24.648Z,2.70
2022-09-12T17:16:42.862Z,2.80
2022-09-12T17:19:14.365Z,2.70
2022-09-12T17:21:41.055Z,2.90
2022-09-12T17:24:07.639Z,3.50
2022-09-12T17:26:34.536Z,3.10
2022-09-12T17:29:01.404Z,2.80
2022-09-12T17:31:28.543Z,3.40
2022-09-12T17:33:57.802Z,3.40
2022-09-12T17:36:25.750Z,3.30
2022-09-12T17:38:53.772Z,3.20
2022-09-12T17:41:23.134Z,3.40
2022-09-12T17:43:52.162Z,3.50
2022-09-12T17:46:20.528Z,3.50
2022-09-12T17:48:55.030Z,3.20
2022-09-12T17:51:24.333Z,3.70
2022-09-12T17:54:09.961Z,3.80
2022-09-12T17:56:36.496Z,3.60
2022-09-12T17:59:04.787Z,3.80
2022-09-12T18:01:50.109Z,3.60
2022-09-12T18:04:17.352Z,4.10
2022-09-12T18:06:49.740Z,4.20
2022-09-12T18:09:24.686Z,3.70
2022-09-12T18:11:52.245Z,3.70
2022-09-12T18:14:19.848Z,3.80
2022-09-12T18:16:47.864Z,3.40
2022-09-12T18:19:15.621Z,3.20
2022-09-12T18:21:41.980Z,3.80
2022-09-12T18:24:09.534Z,4.00
2022-09-12T18:26:39.375Z,3.70
2022-09-12T18:29:06.412Z,4.70
2022-09-12T18:31:33.745Z,4.40
2022-09-12T18:34:00.489Z,5.80
2022-09-12T18:36:27.490Z,4.90
2022-09-12T18:38:54.703Z,6.20
2022-09-12T18:41:22.772Z,6.00
2022-09-12T18:43:54.058Z,5.10
2022-09-12T18:46:21.055Z,4.50
2022-09-12T18:48:47.594Z,4.90
2022-09-12T18:51:21.141Z,4.90
2022-09-12T18:53:54.644Z,4.70
2022-09-12T18:56:32.573Z,5.00
2022-09-12T18:59:01.693Z,5.70
2022-09-12T19:04:06.477Z,5.50
2022-09-12T19:06:40.747Z,5.20
2022-09-12T19:09:08.650Z,5.20
2022-09-12T19:11:41.904Z,5.20
2022-09-12T19:14:08.326Z,4.70
2022-09-12T19:16:35.184Z,4.90
2022-09-12T19:19:02.628Z,4.50
2022-09-12T19:21:30.335Z,4.70
2022-09-12T19:24:03.901Z,5.30
2022-09-12T19:26:31.691Z,5.30
2022-09-12T19:29:01.902Z,4.20
2022-09-12T19:31:30.014Z,3.90
2022-09-12T19:34:01.347Z,4.40
2022-09-12T19:36:44.251Z,4.60
2022-09-12T19:39:13.110Z,5.20
2022-09-12T19:41:39.769Z,5.00
2022-09-12T19:44:06.423Z,4.80
2022-09-12T19:46:33.501Z,4.80
2022-09-12T19:49:00.741Z,4.30
2022-09-12T19:51:27.338Z,4.00
2022-09-12T19:53:55.185Z,3.80
2022-09-12T19:56:24.689Z,4.00
2022-09-12T19:58:56.119Z,5.30
2022-09-12T20:01:29.654Z,4.90
2022-09-12T20:03:57.294Z,5.20
2022-09-12T20:06:25.788Z,5.30
2022-09-12T20:08:54.696Z,5.20
2022-09-12T20:11:24.122Z,5.00
2022-09-12T20:13:51.097Z,5.10
2022-09-12T20:16:22.437Z,5.40
2022-09-12T20:18:59.810Z,5.20
2022-09-12T20:21:32.444Z,5.20
2022-09-12T20:24:08.589Z,6.30
2022-09-12T20:26:35.923Z,5.10
2022-09-12T20:29:04.969Z,5.80
2022-09-12T20:31:33.224Z,6.00
2022-09-12T20:33:59.922Z,5.90
2022-09-12T20:36:27.206Z,5.60
2022-09-12T20:39:00.610Z,5.80
2022-09-12T20:41:29.045Z,5.40
2022-09-12T20:43:56.378Z,6.40
2022-09-12T20:46:27.053Z,6.10
2022-09-12T20:48:53.949Z,6.20
2022-09-12T20:51:21.875Z,6.40
2022-09-12T20:53:56.893Z,6.30
2022-09-12T20:56:26.555Z,6.00
2022-09-12T20:58:54.311Z,5.40
2022-09-12T21:01:21.830Z,6.50
2022-09-12T21:03:48.987Z,6.20
2022-09-12T21:06:18.580Z,5.70
2022-09-12T21:08:47.371Z,6.40
2022-09-12T21:11:15.068Z,7.40
2022-09-12T21:13:42.531Z,7.10
2022-09-12T21:16:15.193Z,6.80
2022-09-12T21:18:42.391Z,6.90
2022-09-12T21:21:12.978Z,6.10
2022-09-12T21:23:41.115Z,6.50
2022-09-12T21:26:09.112Z,6.20
2022-09-12T21:28:39.455Z,6.40
2022-09-12T21:31:06.452Z,5.80
2022-09-12T21:33:33.672Z,5.40
2022-09-12T21:36:02.975Z,5.20
2022-09-12T21:38:31.609Z,6.40
2022-09-12T21:41:10.176Z,6.80
2022-09-12T21:43:38.180Z,5.40
2022-09-12T21:46:05.602Z,5.80
2022-09-12T21:48:32.388Z,5.50
2022-09-12T21:50:59.155Z,6.10
2022-09-12T21:53:25.721Z,5.50
2022-09-12T21:55:52.865Z,5.60
2022-09-12T21:58:20.125Z,5.50
2022-09-12T22:00:47.445Z,6.20
2022-09-12T22:03:15.315Z,5.50
2022-09-12T22:05:42.633Z,5.20
2022-09-12T22:08:10.795Z,5.30
2022-09-12T22:10:38.146Z,5.60
2022-09-12T22:13:06.971Z,6.60
2022-09-12T22:15:40.403Z,7.40
2022-09-12T22:18:08.113Z,7.10
2022-09-12T22:20:36.200Z,6.80
2022-09-12T22:23:25.268Z,6.80
2022-09-12T22:25:55.477Z,7.80
2022-09-12T22:28:25.007Z,6.40
2022-09-12T22:30:53.920Z,6.50
2022-09-12T22:33:20.862Z,7.00
2022-09-12T22:35:47.919Z,6.90
2022-09-12T22:38:15.634Z,6.40
2022-09-12T22:40:42.473Z,6.70
2022-09-12T22:43:09.512Z,6.80
2022-09-12T22:45:35.987Z,6.50
2022-09-12T22:48:06.192Z,6.70
2022-09-12T22:50:35.937Z,7.00
2022-09-12T22:53:02.589Z,6.70
2022-09-12T22:55:29.471Z,6.90
2022-09-12T22:57:56.459Z,5.90
2022-09-12T23:00:23.816Z,7.50
2022-09-12T23:02:50.123Z,6.50
2022-09-12T23:05:16.721Z,6.80
2022-09-12T23:07:45.540Z,7.40
2022-09-12T23:10:12.753Z,7.00
2022-09-12T23:12:39.429Z,7.00
2022-09-12T23:15:08.377Z,6.30
2022-09-12T23:17:36.523Z,6.70
2022-09-12T23:20:04.515Z,6.50
2022-09-12T23:22:30.846Z,6.70
2022-09-12T23:24:57.669Z,5.90
2022-09-12T23:27:27.518Z,5.80
2022-09-12T23:29:54.607Z,5.70
2022-09-12T23:32:23.209Z,6.10
2022-09-12T23:34:50.227Z,5.60
2022-09-12T23:37:17.605Z,5.80
2022-09-12T23:39:44.611Z,5.80
2022-09-12T23:42:11.608Z,5.60
2022-09-12T23:44:38.895Z,6.10
2022-09-12T23:47:08.087Z,5.60
2022-09-12T23:49:35.343Z,5.80
2022-09-12T23:52:04.252Z,5.50
2022-09-12T23:54:30.865Z,5.20
2022-09-12T23:57:00.859Z,6.20
2022-09-12T23:59:32.433Z,5.70
